Time;durP1;ratioP1;P1;durP2;ratioP2;P2;SDS_P1;SDS_P2;PMS_P1;PMS_P2;Temp;Humidity;BMP_temperature;BMP_pressure;BME280_temperature;BME280_humidity;BME280_pressure;Samples;Min_cycle;Max_cycle;Signal;HPM_P1;HPM_P2
2021/03/27 00:02:24;;;;;;;8.53;5.17;;;;;;;;;;5019249;28;20262;-80
2021/03/27 00:04:52;;;;;;;8.90;5.27;;;;;;;;;;5018826;28;20195;-79
2021/03/27 00:07:23;;;;;;;8.40;5.37;;;;;;;;;;5018230;28;20206;-81
2021/03/27 00:09:51;;;;;;;7.27;5.30;;;;;;;;;;5017967;28;20213;-80
2021/03/27 00:12:21;;;;;;;8.50;5.50;;;;;;;;;;5034676;28;20256;-81
2021/03/27 00:14:49;;;;;;;6.57;5.10;;;;;;;;;;5018558;28;20634;-81
2021/03/27 00:17:16;;;;;;;6.60;5.27;;;;;;;;;;5035202;28;20236;-80
2021/03/27 00:19:44;;;;;;;8.23;5.70;;;;;;;;;;5019749;28;20190;-81
2021/03/27 00:22:15;;;;;;;6.90;5.20;;;;;;;;;;5036044;28;20263;-81
2021/03/27 00:24:53;;;;;;;11.13;6.13;;;;;;;;;;5024824;28;20186;-80
2021/03/27 00:27:21;;;;;;;10.73;6.17;;;;;;;;;;5037937;28;20231;-82
2021/03/27 00:29:48;;;;;;;8.70;6.53;;;;;;;;;;5020876;28;20217;-82
2021/03/27 00:32:33;;;;;;;9.43;6.60;;;;;;;;;;5038713;28;20180;-82
2021/03/27 00:35:01;;;;;;;12.63;7.33;;;;;;;;;;5022463;28;20635;-82
2021/03/27 00:37:27;;;;;;;10.47;7.57;;;;;;;;;;5038750;28;20198;-82
2021/03/27 00:40:20;;;;;;;11.27;8.50;;;;;;;;;;5022659;28;20668;-82
2021/03/27 00:42:46;;;;;;;9.67;6.20;;;;;;;;;;5033427;28;20197;-82
2021/03/27 00:45:17;;;;;;;9.47;6.33;;;;;;;;;;5020693;28;20244;-82
2021/03/27 00:47:44;;;;;;;9.43;7.17;;;;;;;;;;5019861;28;20212;-82
2021/03/27 00:50:29;;;;;;;8.57;6.43;;;;;;;;;;5020564;28;20195;-83
2021/03/27 00:52:56;;;;;;;9.47;6.27;;;;;;;;;;5036492;28;20183;-83
2021/03/27 00:55:29;;;;;;;10.50;6.47;;;;;;;;;;5020313;28;20186;-83
2021/03/27 00:57:56;;;;;;;7.30;6.30;;;;;;;;;;5035430;28;20297;-83
2021/03/27 01:00:28;;;;;;;7.07;6.27;;;;;;;;;;5019642;28;20186;-82
2021/03/27 01:02:55;;;;;;;7.47;6.53;;;;;;;;;;5020653;28;20183;-83
2021/03/27 01:05:22;;;;;;;7.70;6.57;;;;;;;;;;5019766;28;20181;-83
2021/03/27 01:07:48;;;;;;;7.10;5.97;;;;;;;;;;5036325;28;20202;-83
2021/03/27 01:10:20;;;;;;;7.20;6.20;;;;;;;;;;5019703;28;20595;-83
2021/03/27 01:12:46;;;;;;;5.20;3.93;;;;;;;;;;5020987;28;20546;-82
2021/03/27 01:15:20;;;;;;;5.73;3.73;;;;;;;;;;5018463;28;20182;-83
2021/03/27 01:17:47;;;;;;;4.73;3.43;;;;;;;;;;5018538;28;20199;-81
2021/03/27 01:20:13;;;;;;;5.50;3.77;;;;;;;;;;5020971;28;20179;-83
2021/03/27 01:22:39;;;;;;;4.30;3.50;;;;;;;;;;5037536;28;20182;-82
2021/03/27 01:25:05;;;;;;;5.57;4.33;;;;;;;;;;5035375;28;20175;-83
2021/03/27 01:27:35;;;;;;;5.10;4.60;;;;;;;;;;5019129;28;20912;-83
2021/03/27 01:30:03;;;;;;;5.23;4.73;;;;;;;;;;5035692;28;20186;-82
2021/03/27 01:32:39;;;;;;;6.57;5.10;;;;;;;;;;5019007;28;20186;-82
2021/03/27 01:35:05;;;;;;;7.13;5.30;;;;;;;;;;5034645;28;20566;-83
2021/03/27 01:37:39;;;;;;;7.00;5.50;;;;;;;;;;5033551;28;20199;-84
2021/03/27 01:40:05;;;;;;;6.33;5.50;;;;;;;;;;5018540;28;20193;-83
2021/03/27 01:42:54;;;;;;;7.80;5.80;;;;;;;;;;5038756;28;20179;-83
2021/03/27 01:45:39;;;;;;;6.90;5.83;;;;;;;;;;4990485;28;20193;-82
2021/03/27 01:48:17;;;;;;;6.90;5.67;;;;;;;;;;5035984;28;20213;-84
2021/03/27 01:50:45;;;;;;;8.37;5.93;;;;;;;;;;5020423;28;20698;-82
2021/03/27 01:53:30;;;;;;;5.00;3.73;;;;;;;;;;5019942;28;20175;-82
2021/03/27 01:56:15;;;;;;;5.23;4.10;;;;;;;;;;5036453;28;20178;-83
2021/03/27 01:58:47;;;;;;;3.40;3.10;;;;;;;;;;5051853;23;20276;-79
2021/03/27 02:01:16;;;;;;;4.50;3.63;;;;;;;;;;5052336;28;20185;-78
2021/03/27 02:03:46;;;;;;;2.93;2.53;;;;;;;;;;5052267;28;20228;-79
2021/03/27 02:06:20;;;;;;;3.67;2.50;;;;;;;;;;5051824;28;20185;-78
2021/03/27 02:08:55;;;;;;;2.73;2.53;;;;;;;;;;5042339;28;20229;-79
2021/03/27 02:11:30;;;;;;;3.30;3.00;;;;;;;;;;5035150;28;20180;-80
2021/03/27 02:14:04;;;;;;;3.97;3.57;;;;;;;;;;5018946;28;20182;-79
2021/03/27 02:16:34;;;;;;;3.50;3.20;;;;;;;;;;5034665;28;20228;-79
2021/03/27 02:19:19;;;;;;;3.83;3.40;;;;;;;;;;5018755;28;20206;-78
2021/03/27 02:21:48;;;;;;;3.80;3.40;;;;;;;;;;5035753;28;20630;-80
2021/03/27 02:24:25;;;;;;;3.90;3.50;;;;;;;;;;5034326;28;20256;-79
2021/03/27 02:26:53;;;;;;;3.77;3.33;;;;;;;;;;5017699;28;20566;-79
2021/03/27 02:29:28;;;;;;;3.87;3.57;;;;;;;;;;5018037;28;20230;-81
2021/03/27 02:32:14;;;;;;;4.40;3.57;;;;;;;;;;5035343;28;20342;-78
2021/03/27 02:34:44;;;;;;;4.83;3.87;;;;;;;;;;5004986;28;20199;-78
2021/03/27 02:37:16;;;;;;;4.70;4.17;;;;;;;;;;4998818;28;20633;-79
2021/03/27 02:39:46;;;;;;;6.60;4.13;;;;;;;;;;5004629;28;20227;-79
2021/03/27 02:42:25;;;;;;;6.47;4.17;;;;;;;;;;5016831;28;20178;-78
2021/03/27 02:44:52;;;;;;;4.67;4.17;;;;;;;;;;5015385;28;20210;-78
2021/03/27 02:47:18;;;;;;;7.87;4.30;;;;;;;;;;4998989;28;20237;-78
2021/03/27 02:49:53;;;;;;;5.00;4.30;;;;;;;;;;5016314;28;20217;-78
2021/03/27 02:52:26;;;;;;;6.10;3.80;;;;;;;;;;4998962;28;20175;-79
2021/03/27 02:54:52;;;;;;;5.80;4.83;;;;;;;;;;5003093;28;20190;-79
2021/03/27 02:57:37;;;;;;;5.63;4.50;;;;;;;;;;5019103;28;20187;-79
2021/03/27 03:00:22;;;;;;;6.33;4.73;;;;;;;;;;5001778;28;20199;-80
2021/03/27 03:02:53;;;;;;;7.67;5.10;;;;;;;;;;5013185;28;20212;-80
2021/03/27 03:05:29;;;;;;;6.73;5.20;;;;;;;;;;4998417;28;20190;-81
2021/03/27 03:08:03;;;;;;;7.93;5.17;;;;;;;;;;4998809;28;20293;-80
2021/03/27 03:10:53;;;;;;;7.13;5.37;;;;;;;;;;4998278;28;20714;-80
2021/03/27 03:13:21;;;;;;;6.57;5.27;;;;;;;;;;5014678;28;20193;-79
2021/03/27 03:15:53;;;;;;;10.13;6.80;;;;;;;;;;4997669;28;20186;-80
2021/03/27 03:18:22;;;;;;;10.83;6.47;;;;;;;;;;5013688;28;20747;-80
2021/03/27 03:20:49;;;;;;;8.83;6.20;;;;;;;;;;4999110;28;20879;-81
2021/03/27 03:23:27;;;;;;;10.10;7.47;;;;;;;;;;5015022;28;20187;-81
2021/03/27 03:26:00;;;;;;;12.23;7.47;;;;;;;;;;4998475;28;20574;-80
2021/03/27 03:28:26;;;;;;;10.70;7.13;;;;;;;;;;4998125;28;20812;-81
2021/03/27 03:31:01;;;;;;;10.10;8.03;;;;;;;;;;5015242;28;20190;-80
2021/03/27 03:33:30;;;;;;;10.30;7.20;;;;;;;;;;4997737;28;20209;-80
2021/03/27 03:36:06;;;;;;;10.90;7.83;;;;;;;;;;4997551;28;20229;-80
2021/03/27 03:38:41;;;;;;;11.53;8.00;;;;;;;;;;5013574;28;20205;-81
2021/03/27 03:41:26;;;;;;;10.07;5.57;;;;;;;;;;5014741;28;20190;-79
2021/03/27 03:44:03;;;;;;;11.53;7.37;;;;;;;;;;5013315;28;20278;-80
2021/03/27 03:46:32;;;;;;;11.67;8.03;;;;;;;;;;4997503;28;20209;-79
2021/03/27 03:48:58;;;;;;;12.63;7.37;;;;;;;;;;5013267;28;20219;-80
2021/03/27 03:51:36;;;;;;;13.17;6.53;;;;;;;;;;5014198;28;20214;-81
2021/03/27 03:54:23;;;;;;;8.53;5.30;;;;;;;;;;5013390;28;20179;-80
2021/03/27 03:56:52;;;;;;;9.17;4.77;;;;;;;;;;4996725;28;20623;-81
2021/03/27 03:59:34;;;;;;;10.30;5.70;;;;;;;;;;4996632;28;20703;-80
2021/03/27 04:02:06;;;;;;;10.53;6.47;;;;;;;;;;5012835;28;20278;-80
2021/03/27 04:04:33;;;;;;;9.33;6.97;;;;;;;;;;4995692;28;20186;-80
2021/03/27 04:07:09;;;;;;;11.13;6.67;;;;;;;;;;4996687;28;20180;-79
2021/03/27 04:09:44;;;;;;;12.23;6.90;;;;;;;;;;4996624;28;20222;-80
2021/03/27 04:12:10;;;;;;;10.40;6.50;;;;;;;;;;4996564;28;20257;-80
2021/03/27 04:14:49;;;;;;;9.10;6.63;;;;;;;;;;5012626;28;20183;-80
2021/03/27 04:17:31;;;;;;;9.50;6.23;;;;;;;;;;5014044;28;20178;-80
2021/03/27 04:20:01;;;;;;;8.23;5.63;;;;;;;;;;5016213;28;20205;-80
2021/03/27 04:22:29;;;;;;;10.13;5.33;;;;;;;;;;5012738;28;20189;-80
2021/03/27 04:24:59;;;;;;;8.07;5.73;;;;;;;;;;4996266;28;20193;-80
2021/03/27 04:27:25;;;;;;;9.00;5.37;;;;;;;;;;4996823;28;20253;-80
2021/03/27 04:30:00;;;;;;;8.07;5.27;;;;;;;;;;5013107;28;20722;-78
2021/03/27 04:32:44;;;;;;;10.13;5.60;;;;;;;;;;5012784;28;20659;-78
2021/03/27 04:35:10;;;;;;;9.10;5.20;;;;;;;;;;5013352;28;20290;-80
2021/03/27 04:37:40;;;;;;;13.20;5.30;;;;;;;;;;5012556;28;20262;-80
2021/03/27 04:40:12;;;;;;;8.03;4.53;;;;;;;;;;4996800;28;20228;-79
2021/03/27 04:42:44;;;;;;;8.87;5.00;;;;;;;;;;4996841;28;20277;-81
2021/03/27 04:45:22;;;;;;;9.43;5.03;;;;;;;;;;5012542;28;20192;-79
2021/03/27 04:48:03;;;;;;;7.97;3.90;;;;;;;;;;4996017;28;20243;-80
2021/03/27 04:50:41;;;;;;;7.77;4.80;;;;;;;;;;5011933;28;20537;-79
2021/03/27 04:53:07;;;;;;;9.27;4.63;;;;;;;;;;4996555;28;20236;-80
2021/03/27 04:55:33;;;;;;;6.20;4.60;;;;;;;;;;5011666;28;20183;-80
2021/03/27 04:58:18;;;;;;;9.73;4.83;;;;;;;;;;5011819;28;20222;-80
2021/03/27 05:00:49;;;;;;;7.53;4.57;;;;;;;;;;5012010;28;20189;-79
2021/03/27 05:03:27;;;;;;;7.67;5.00;;;;;;;;;;5011890;28;20187;-79
2021/03/27 05:06:05;;;;;;;11.00;4.73;;;;;;;;;;4995370;28;20218;-79
2021/03/27 05:08:37;;;;;;;11.67;4.07;;;;;;;;;;5011490;28;20283;-79
2021/03/27 05:11:12;;;;;;;12.13;4.70;;;;;;;;;;5011899;28;20181;-79
2021/03/27 05:13:39;;;;;;;9.07;4.90;;;;;;;;;;5013719;28;20184;-80
2021/03/27 05:16:09;;;;;;;8.90;5.13;;;;;;;;;;4995363;28;20202;-81
2021/03/27 05:18:52;;;;;;;10.53;5.03;;;;;;;;;;4995689;28;20257;-81
2021/03/27 05:21:22;;;;;;;7.87;4.37;;;;;;;;;;4995486;28;20182;-81
2021/03/27 05:23:51;;;;;;;10.80;5.00;;;;;;;;;;4995304;28;20554;-80
2021/03/27 05:26:19;;;;;;;9.37;4.07;;;;;;;;;;5012576;28;20666;-81
2021/03/27 05:28:50;;;;;;;10.57;4.40;;;;;;;;;;4995595;28;20207;-79
2021/03/27 05:31:23;;;;;;;11.33;4.50;;;;;;;;;;4994931;28;20193;-79
2021/03/27 05:33:58;;;;;;;10.27;4.60;;;;;;;;;;5011790;28;20270;-79
2021/03/27 05:36:44;;;;;;;9.93;5.20;;;;;;;;;;5013466;28;20175;-80
2021/03/27 05:39:13;;;;;;;8.13;3.57;;;;;;;;;;4996084;28;20213;-79
2021/03/27 05:41:54;;;;;;;8.20;4.03;;;;;;;;;;5011840;28;20182;-80
2021/03/27 05:44:59;;;;;;;12.43;4.57;;;;;;;;;;5013274;28;20192;-80
2021/03/27 05:47:44;;;;;;;11.57;4.23;;;;;;;;;;4972039;28;20196;-79
2021/03/27 05:50:18;;;;;;;10.00;3.73;;;;;;;;;;4955479;28;20267;-78
2021/03/27 05:53:03;;;;;;;12.20;4.43;;;;;;;;;;4976114;28;20186;-79
2021/03/27 05:55:35;;;;;;;8.97;3.83;;;;;;;;;;5011103;28;20195;-78
2021/03/27 05:58:01;;;;;;;11.83;4.00;;;;;;;;;;5024072;28;20225;-80
2021/03/27 06:00:40;;;;;;;8.60;4.13;;;;;;;;;;5019098;28;20189;-78
2021/03/27 06:03:12;;;;;;;10.63;4.63;;;;;;;;;;5029270;28;20189;-79
2021/03/27 06:05:48;;;;;;;14.20;4.87;;;;;;;;;;5032833;28;20189;-80
2021/03/27 06:08:26;;;;;;;12.43;4.37;;;;;;;;;;5014526;28;20207;-78
2021/03/27 06:10:55;;;;;;;9.27;4.20;;;;;;;;;;5022571;28;20265;-78
2021/03/27 06:13:27;;;;;;;9.00;4.87;;;;;;;;;;5031945;28;20551;-79
2021/03/27 06:16:06;;;;;;;13.70;5.10;;;;;;;;;;5032361;28;20173;-82
2021/03/27 06:18:36;;;;;;;11.67;5.03;;;;;;;;;;5030827;28;20206;-79
2021/03/27 06:21:15;;;;;;;12.03;5.47;;;;;;;;;;5031083;28;20209;-78
2021/03/27 06:23:59;;;;;;;9.30;5.13;;;;;;;;;;5029294;28;20651;-78
2021/03/27 06:26:49;;;;;;;14.77;5.13;;;;;;;;;;5022208;28;20179;-79
2021/03/27 06:29:14;;;;;;;12.07;4.77;;;;;;;;;;5024313;28;20617;-78
2021/03/27 06:32:13;;;;;;;7.60;3.60;;;;;;;;;;5035093;28;20183;-78
2021/03/27 06:34:51;;;;;;;11.30;4.77;;;;;;;;;;4991805;28;20197;-79
2021/03/27 06:37:23;;;;;;;7.27;4.40;;;;;;;;;;5034567;28;20537;-79
2021/03/27 06:39:49;;;;;;;8.87;4.03;;;;;;;;;;5036547;28;20205;-79
2021/03/27 06:42:26;;;;;;;10.20;3.87;;;;;;;;;;5036718;28;20190;-79
2021/03/27 06:44:52;;;;;;;7.30;3.97;;;;;;;;;;5035738;28;20186;-81
2021/03/27 06:47:30;;;;;;;6.27;3.80;;;;;;;;;;5035022;28;20189;-79
2021/03/27 06:50:05;;;;;;;10.37;3.63;;;;;;;;;;5036002;28;20690;-79
2021/03/27 06:52:48;;;;;;;7.43;4.17;;;;;;;;;;5036489;28;20183;-79
2021/03/27 06:55:23;;;;;;;8.00;4.67;;;;;;;;;;5018987;28;20183;-80
2021/03/27 06:58:07;;;;;;;7.83;4.13;;;;;;;;;;5019000;28;20260;-80
2021/03/27 07:00:36;;;;;;;9.37;3.50;;;;;;;;;;5034006;28;20178;-79
2021/03/27 07:03:25;;;;;;;10.90;4.90;;;;;;;;;;5034139;28;20252;-79
2021/03/27 07:06:04;;;;;;;5.83;3.60;;;;;;;;;;5037625;28;20193;-79
2021/03/27 07:08:46;;;;;;;7.30;3.80;;;;;;;;;;5030906;28;20290;-79
2021/03/27 07:11:18;;;;;;;6.67;2.57;;;;;;;;;;5016167;28;20227;-79
2021/03/27 07:13:44;;;;;;;6.00;2.80;;;;;;;;;;5032811;28;20198;-77
2021/03/27 07:16:28;;;;;;;6.53;2.60;;;;;;;;;;5035227;28;20536;-76
2021/03/27 07:18:58;;;;;;;6.30;2.10;;;;;;;;;;5018039;28;20226;-76
2021/03/27 07:21:33;;;;;;;9.03;2.90;;;;;;;;;;5014990;28;20183;-76
2021/03/27 07:24:17;;;;;;;10.37;2.60;;;;;;;;;;5015005;28;20527;-77
2021/03/27 07:27:02;;;;;;;8.37;2.70;;;;;;;;;;5021085;28;20182;-76
2021/03/27 07:29:47;;;;;;;9.00;2.87;;;;;;;;;;5042078;28;20209;-75
2021/03/27 07:32:21;;;;;;;4.03;2.30;;;;;;;;;;5014616;28;20202;-76
2021/03/27 07:34:47;;;;;;;8.10;2.80;;;;;;;;;;5047001;28;20181;-75
2021/03/27 07:37:36;;;;;;;6.23;2.20;;;;;;;;;;5032623;28;20663;-77
2021/03/27 07:40:14;;;;;;;7.53;2.57;;;;;;;;;;5033559;28;20170;-79
2021/03/27 07:42:43;;;;;;;5.27;1.63;;;;;;;;;;5033131;28;20608;-78
2021/03/27 07:45:21;;;;;;;2.47;1.70;;;;;;;;;;5030330;28;20183;-76
2021/03/27 07:47:56;;;;;;;6.70;1.60;;;;;;;;;;5039080;28;20204;-76
2021/03/27 07:50:22;;;;;;;3.93;1.50;;;;;;;;;;5033396;28;20178;-76
2021/03/27 07:53:14;;;;;;;5.03;1.73;;;;;;;;;;5036644;28;20191;-76
2021/03/27 07:55:49;;;;;;;3.63;1.30;;;;;;;;;;5049418;28;20278;-76
2021/03/27 07:58:34;;;;;;;3.03;1.00;;;;;;;;;;5017876;28;20219;-75
2021/03/27 08:01:03;;;;;;;2.07;1.07;;;;;;;;;;5024770;28;20181;-76
2021/03/27 08:03:29;;;;;;;2.67;0.87;;;;;;;;;;5034168;28;20190;-74
2021/03/27 08:06:13;;;;;;;2.00;0.83;;;;;;;;;;5037449;28;20188;-75
2021/03/27 08:08:51;;;;;;;1.93;1.10;;;;;;;;;;5032081;28;20221;-75
2021/03/27 08:11:19;;;;;;;2.33;1.00;;;;;;;;;;5016856;28;20613;-75
2021/03/27 08:13:57;;;;;;;2.27;1.00;;;;;;;;;;5032643;28;20548;-76
2021/03/27 08:16:23;;;;;;;1.87;1.10;;;;;;;;;;5033622;28;20174;-75
2021/03/27 08:19:04;;;;;;;1.20;0.90;;;;;;;;;;5032071;28;20209;-76
2021/03/27 08:21:42;;;;;;;2.27;0.90;;;;;;;;;;5033627;28;20184;-76
2021/03/27 08:24:11;;;;;;;1.30;0.90;;;;;;;;;;5033768;28;20192;-76
2021/03/27 08:26:43;;;;;;;1.57;0.77;;;;;;;;;;5032200;28;20275;-77
2021/03/27 08:29:28;;;;;;;1.60;0.90;;;;;;;;;;5033119;28;20677;-77
2021/03/27 08:32:06;;;;;;;2.60;1.07;;;;;;;;;;5031840;28;20179;-76
2021/03/27 08:34:51;;;;;;;2.17;0.93;;;;;;;;;;5031834;28;20253;-76
2021/03/27 08:37:32;;;;;;;2.13;1.03;;;;;;;;;;5013523;28;20611;-76
2021/03/27 08:40:30;;;;;;;2.30;0.90;;;;;;;;;;5012313;28;20180;-76
2021/03/27 08:42:56;;;;;;;1.53;1.20;;;;;;;;;;5069921;23;20264;-76
2021/03/27 08:45:41;;;;;;;1.30;1.17;;;;;;;;;;5064861;28;20206;-76
2021/03/27 08:48:29;;;;;;;2.40;1.30;;;;;;;;;;5045003;28;20734;-76
2021/03/27 08:51:04;;;;;;;1.53;1.00;;;;;;;;;;5047612;28;20266;-79
2021/03/27 08:53:49;;;;;;;1.77;1.20;;;;;;;;;;5048945;28;20181;-77
2021/03/27 08:56:34;;;;;;;2.87;1.20;;;;;;;;;;5072204;28;20183;-79
2021/03/27 08:59:00;;;;;;;1.50;1.20;;;;;;;;;;5053306;28;20673;-79
2021/03/27 09:01:41;;;;;;;3.30;1.37;;;;;;;;;;5035640;28;20204;-78
2021/03/27 09:04:19;;;;;;;2.07;1.33;;;;;;;;;;5035761;28;20272;-77
2021/03/27 09:06:46;;;;;;;2.83;1.23;;;;;;;;;;5052886;28;20183;-79
2021/03/27 09:09:15;;;;;;;3.27;1.23;;;;;;;;;;5035444;28;20249;-79
2021/03/27 09:12:04;;;;;;;2.97;1.70;;;;;;;;;;5053627;28;20201;-77
2021/03/27 09:14:38;;;;;;;2.63;1.53;;;;;;;;;;5034962;28;20199;-80
2021/03/27 09:17:22;;;;;;;2.77;1.90;;;;;;;;;;5053779;28;20170;-78
2021/03/27 09:20:03;;;;;;;7.67;2.03;;;;;;;;;;5064857;28;20811;-76
2021/03/27 09:22:33;;;;;;;6.67;2.30;;;;;;;;;;5042005;28;20617;-80
2021/03/27 09:24:59;;;;;;;4.73;2.73;;;;;;;;;;5045706;28;20180;-78
2021/03/27 09:27:44;;;;;;;6.03;2.93;;;;;;;;;;5047206;28;20185;-78
2021/03/27 09:30:19;;;;;;;6.47;2.63;;;;;;;;;;5053304;28;20198;-75
2021/03/27 09:33:04;;;;;;;7.80;2.87;;;;;;;;;;5067428;28;20197;-74
2021/03/27 09:35:30;;;;;;;5.10;2.87;;;;;;;;;;5052219;28;20554;-76
2021/03/27 09:38:00;;;;;;;7.10;2.57;;;;;;;;;;5044218;28;20211;-76
2021/03/27 09:40:29;;;;;;;10.13;3.07;;;;;;;;;;5025603;28;20178;-75
2021/03/27 09:43:13;;;;;;;6.23;2.37;;;;;;;;;;5030567;28;20223;-76
2021/03/27 09:45:43;;;;;;;4.80;2.70;;;;;;;;;;5067760;28;20550;-76
2021/03/27 09:48:29;;;;;;;8.07;3.00;;;;;;;;;;5048821;28;20180;-75
2021/03/27 09:51:00;;;;;;;11.23;2.70;;;;;;;;;;5049334;28;20177;-76
2021/03/27 09:53:34;;;;;;;5.10;1.83;;;;;;;;;;5018628;28;20199;-79
2021/03/27 09:56:07;;;;;;;7.07;2.60;;;;;;;;;;5034634;28;20590;-79
2021/03/27 09:58:46;;;;;;;6.70;2.70;;;;;;;;;;5035450;28;20229;-83
2021/03/27 10:01:16;;;;;;;11.33;3.10;;;;;;;;;;5030627;28;20327;-84
2021/03/27 10:03:54;;;;;;;8.63;3.23;;;;;;;;;;5032686;28;20193;-81
2021/03/27 10:06:20;;;;;;;4.50;1.97;;;;;;;;;;5066791;28;20204;-83
2021/03/27 10:08:47;;;;;;;10.97;3.17;;;;;;;;;;5055493;28;20553;-84
2021/03/27 10:11:14;;;;;;;9.70;2.53;;;;;;;;;;5050442;28;20181;-84
2021/03/27 10:13:40;;;;;;;5.43;2.43;;;;;;;;;;5037060;28;20265;-85
2021/03/27 10:16:13;;;;;;;6.90;2.60;;;;;;;;;;5036595;28;20214;-83
2021/03/27 10:18:41;;;;;;;3.43;1.50;;;;;;;;;;5037617;28;20649;-83
2021/03/27 10:21:19;;;;;;;2.73;1.30;;;;;;;;;;5022823;28;20188;-84
2021/03/27 10:23:50;;;;;;;3.87;1.30;;;;;;;;;;5023706;28;20671;-82
2021/03/27 10:26:24;;;;;;;3.23;1.37;;;;;;;;;;5023556;28;20209;-81
2021/03/27 10:29:09;;;;;;;5.07;1.40;;;;;;;;;;5022736;28;20199;-81
2021/03/27 10:31:42;;;;;;;3.03;1.13;;;;;;;;;;5057287;28;20212;-82
2021/03/27 10:34:19;;;;;;;2.50;0.97;;;;;;;;;;5025011;28;20667;-83
2021/03/27 10:36:55;;;;;;;1.73;0.90;;;;;;;;;;5022436;28;20647;-83
2021/03/27 10:39:27;;;;;;;1.93;0.93;;;;;;;;;;5039331;28;20237;-82
2021/03/27 10:41:58;;;;;;;2.10;1.20;;;;;;;;;;5038781;28;20723;-81
2021/03/27 10:44:43;;;;;;;1.73;1.00;;;;;;;;;;5023331;28;20628;-79
2021/03/27 10:47:14;;;;;;;2.13;1.10;;;;;;;;;;5056017;28;20193;-82
2021/03/27 10:49:42;;;;;;;2.03;0.73;;;;;;;;;;5004813;28;20200;-83
2021/03/27 10:52:18;;;;;;;2.97;1.20;;;;;;;;;;5036948;28;20203;-82
2021/03/27 10:54:44;;;;;;;3.07;1.30;;;;;;;;;;5036893;28;20219;-82
2021/03/27 10:57:29;;;;;;;4.87;1.50;;;;;;;;;;5052844;28;20174;-80
2021/03/27 11:00:01;;;;;;;6.33;1.27;;;;;;;;;;5020140;28;20706;-83
2021/03/27 11:02:36;;;;;;;4.23;1.30;;;;;;;;;;5036162;28;20207;-79
2021/03/27 11:05:08;;;;;;;3.43;1.27;;;;;;;;;;5034492;28;20623;-78
2021/03/27 11:07:53;;;;;;;4.13;1.30;;;;;;;;;;5017343;28;20189;-79
2021/03/27 11:10:37;;;;;;;4.53;1.53;;;;;;;;;;5051712;28;20763;-78
2021/03/27 11:13:30;;;;;;;3.33;1.30;;;;;;;;;;5051319;28;20199;-79
2021/03/27 11:16:11;;;;;;;4.13;1.43;;;;;;;;;;5037784;28;20170;-78
2021/03/27 11:18:41;;;;;;;7.20;1.60;;;;;;;;;;5037623;28;20273;-76
2021/03/27 11:21:16;;;;;;;5.50;1.67;;;;;;;;;;5021715;28;20182;-78
2021/03/27 11:23:43;;;;;;;5.40;1.90;;;;;;;;;;5037438;28;20181;-78
2021/03/27 11:26:18;;;;;;;10.27;1.80;;;;;;;;;;5020947;28;20231;-79
2021/03/27 11:28:47;;;;;;;7.40;1.70;;;;;;;;;;5036620;28;20202;-81
2021/03/27 11:31:15;;;;;;;4.17;1.80;;;;;;;;;;5021493;28;20182;-81
2021/03/27 11:33:43;;;;;;;7.20;2.00;;;;;;;;;;5021647;28;20716;-82
2021/03/27 11:36:10;;;;;;;7.40;1.83;;;;;;;;;;5037159;28;20205;-82
2021/03/27 11:38:45;;;;;;;6.50;2.00;;;;;;;;;;5022404;28;20189;-81
2021/03/27 11:41:20;;;;;;;6.43;2.00;;;;;;;;;;5022441;28;20188;-82
2021/03/27 11:43:49;;;;;;;9.10;2.30;;;;;;;;;;5039072;28;20178;-82
2021/03/27 11:46:26;;;;;;;11.97;2.27;;;;;;;;;;5022345;28;20190;-82
2021/03/27 11:49:07;;;;;;;8.07;2.33;;;;;;;;;;5023125;28;20202;-81
2021/03/27 11:51:50;;;;;;;6.93;2.00;;;;;;;;;;5033559;28;20196;-84
2021/03/27 11:54:28;;;;;;;3.13;0.93;;;;;;;;;;5041397;28;20173;-82
2021/03/27 11:57:03;;;;;;;1.37;0.80;;;;;;;;;;5041646;28;20183;-81
2021/03/27 12:02:32;;;;;;;3.27;1.50;;;;;;;;;;5058646;28;20581;-82
2021/03/27 12:05:08;;;;;;;2.87;1.50;;;;;;;;;;5038568;28;20189;-78
2021/03/27 12:07:36;;;;;;;5.60;2.30;;;;;;;;;;5020563;28;20269;-82
2021/03/27 12:10:05;;;;;;;7.00;2.07;;;;;;;;;;5020553;28;20195;-81
2021/03/27 12:12:35;;;;;;;2.90;1.63;;;;;;;;;;5022466;28;20198;-81
2021/03/27 12:15:10;;;;;;;6.83;2.00;;;;;;;;;;5023799;28;20249;-81
2021/03/27 12:17:55;;;;;;;3.80;1.77;;;;;;;;;;5052638;28;20179;-78
2021/03/27 12:20:26;;;;;;;5.30;1.50;;;;;;;;;;5037201;28;20558;-80
2021/03/27 12:22:53;;;;;;;3.03;1.50;;;;;;;;;;5011776;28;20213;-80
2021/03/27 12:25:30;;;;;;;3.27;1.53;;;;;;;;;;5023387;28;20185;-79
2021/03/27 12:27:58;;;;;;;4.57;1.90;;;;;;;;;;5025311;28;20180;-77
2021/03/27 12:30:33;;;;;;;5.73;2.27;;;;;;;;;;5020909;28;20180;-81
2021/03/27 12:33:00;;;;;;;5.03;1.80;;;;;;;;;;5069004;28;20253;-79
2021/03/27 12:35:26;;;;;;;2.90;1.50;;;;;;;;;;5020141;28;20192;-79
2021/03/27 12:38:08;;;;;;;4.97;2.33;;;;;;;;;;5053972;28;20178;-80
2021/03/27 12:40:57;;;;;;;7.30;2.87;;;;;;;;;;5044892;28;20556;-78
2021/03/27 12:43:24;;;;;;;6.17;2.27;;;;;;;;;;5064107;28;20252;-76
2021/03/27 12:46:05;;;;;;;8.33;2.03;;;;;;;;;;5055988;28;20642;-78
2021/03/27 12:48:37;;;;;;;5.40;2.20;;;;;;;;;;5071426;28;20201;-75
2021/03/27 12:51:22;;;;;;;8.10;2.30;;;;;;;;;;5025485;28;20193;-75
2021/03/27 12:53:48;;;;;;;5.57;2.00;;;;;;;;;;5069250;28;20603;-80
2021/03/27 12:56:23;;;;;;;7.43;2.57;;;;;;;;;;5064284;28;20231;-75
2021/03/27 12:58:55;;;;;;;7.60;2.27;;;;;;;;;;5063804;28;20264;-74
2021/03/27 13:01:32;;;;;;;6.50;1.80;;;;;;;;;;5056193;28;20182;-73
2021/03/27 13:04:04;;;;;;;6.97;1.93;;;;;;;;;;5020942;28;20185;-75
2021/03/27 13:06:36;;;;;;;7.10;2.00;;;;;;;;;;5052910;28;20506;-76
2021/03/27 13:09:11;;;;;;;4.83;1.80;;;;;;;;;;5035443;28;20750;-73
2021/03/27 13:11:54;;;;;;;5.57;1.90;;;;;;;;;;5053252;28;20193;-74
2021/03/27 13:14:26;;;;;;;9.40;1.93;;;;;;;;;;5018114;28;20185;-72
2021/03/27 13:16:54;;;;;;;7.23;1.70;;;;;;;;;;5052537;28;20178;-73
2021/03/27 13:19:32;;;;;;;3.27;1.43;;;;;;;;;;5054135;28;20174;-81
2021/03/27 13:22:05;;;;;;;6.53;1.80;;;;;;;;;;5038730;28;20206;-81
2021/03/27 13:24:34;;;;;;;4.87;2.00;;;;;;;;;;5036085;28;20188;-82
2021/03/27 13:27:01;;;;;;;3.10;1.70;;;;;;;;;;5038831;28;20178;-83
2021/03/27 13:29:32;;;;;;;5.53;1.50;;;;;;;;;;5021484;28;20620;-83
2021/03/27 13:32:01;;;;;;;5.07;1.80;;;;;;;;;;5019754;28;20205;-81
2021/03/27 13:34:31;;;;;;;10.87;2.17;;;;;;;;;;5040426;28;20178;-83
2021/03/27 13:37:06;;;;;;;4.97;1.90;;;;;;;;;;5029555;28;20190;-84
2021/03/27 13:39:34;;;;;;;6.63;1.87;;;;;;;;;;5025793;28;20214;-84
2021/03/27 13:42:04;;;;;;;5.93;1.70;;;;;;;;;;5010940;28;20221;-84
2021/03/27 13:44:33;;;;;;;4.13;1.83;;;;;;;;;;5054720;28;20663;-78
2021/03/27 13:47:02;;;;;;;4.73;2.00;;;;;;;;;;5054670;28;20183;-81
2021/03/27 13:49:29;;;;;;;3.47;1.90;;;;;;;;;;5038313;28;20208;-81
2021/03/27 13:51:57;;;;;;;4.10;1.97;;;;;;;;;;5019706;28;20225;-80
2021/03/27 13:54:29;;;;;;;4.17;2.00;;;;;;;;;;5021587;28;20220;-79
2021/03/27 13:57:04;;;;;;;6.40;2.03;;;;;;;;;;5034604;28;20177;-74
2021/03/27 13:59:48;;;;;;;3.93;1.80;;;;;;;;;;5018422;28;20196;-76
2021/03/27 14:02:29;;;;;;;6.23;2.17;;;;;;;;;;5011760;28;20264;-80
2021/03/27 14:05:14;;;;;;;6.67;1.80;;;;;;;;;;5034733;28;20234;-78
2021/03/27 14:07:44;;;;;;;5.50;2.10;;;;;;;;;;5052302;28;20213;-80
2021/03/27 14:10:19;;;;;;;7.50;2.33;;;;;;;;;;5018186;28;20212;-76
2021/03/27 14:12:56;;;;;;;6.23;2.30;;;;;;;;;;5033354;28;20197;-75
2021/03/27 14:15:29;;;;;;;9.43;2.00;;;;;;;;;;5017720;28;20264;-74
2021/03/27 14:17:55;;;;;;;9.93;2.20;;;;;;;;;;5018178;28;20702;-79
2021/03/27 14:20:27;;;;;;;5.53;2.13;;;;;;;;;;5067081;28;20201;-78
2021/03/27 14:23:12;;;;;;;7.23;1.87;;;;;;;;;;5032682;28;20212;-77
2021/03/27 14:25:43;;;;;;;4.63;1.70;;;;;;;;;;5033781;28;20234;-80
2021/03/27 14:28:18;;;;;;;3.90;1.80;;;;;;;;;;5034032;28;20261;-78
2021/03/27 14:30:47;;;;;;;4.53;1.77;;;;;;;;;;5018252;28;20227;-78
2021/03/27 14:33:32;;;;;;;7.33;1.63;;;;;;;;;;5033991;28;20281;-79
2021/03/27 14:36:03;;;;;;;4.37;1.50;;;;;;;;;;5034064;28;20206;-80
2021/03/27 14:38:49;;;;;;;7.60;1.80;;;;;;;;;;5017925;28;20271;-79
2021/03/27 14:41:34;;;;;;;5.43;1.70;;;;;;;;;;5011160;28;20694;-78
2021/03/27 14:44:23;;;;;;;6.27;1.53;;;;;;;;;;5069901;23;20673;-78
2021/03/27 14:47:07;;;;;;;4.60;1.30;;;;;;;;;;5025863;28;20684;-79
2021/03/27 14:49:39;;;;;;;3.97;1.33;;;;;;;;;;5075661;28;20573;-79
2021/03/27 14:52:25;;;;;;;5.83;1.70;;;;;;;;;;5074110;28;20185;-78
2021/03/27 14:54:54;;;;;;;5.97;1.50;;;;;;;;;;5022889;28;20196;-79
2021/03/27 14:57:28;;;;;;;8.17;1.90;;;;;;;;;;5031055;28;20944;-75
2021/03/27 14:59:59;;;;;;;3.93;1.60;;;;;;;;;;5037255;28;20265;-76
2021/03/27 15:02:36;;;;;;;6.60;2.00;;;;;;;;;;5036062;28;20217;-78
2021/03/27 15:05:09;;;;;;;5.37;1.60;;;;;;;;;;5029710;28;20193;-80
2021/03/27 15:07:38;;;;;;;5.87;1.87;;;;;;;;;;5018571;28;20190;-80
2021/03/27 15:10:23;;;;;;;8.13;1.80;;;;;;;;;;5035384;28;20258;-77
2021/03/27 15:12:53;;;;;;;8.60;2.00;;;;;;;;;;5022312;28;20206;-78
2021/03/27 15:15:29;;;;;;;5.93;2.27;;;;;;;;;;5038377;28;20190;-78
2021/03/27 15:17:55;;;;;;;8.37;2.50;;;;;;;;;;5021573;28;20227;-78
2021/03/27 15:20:20;;;;;;;10.37;3.00;;;;;;;;;;5038780;28;20280;-77
2021/03/27 15:22:55;;;;;;;8.63;2.50;;;;;;;;;;5038323;28;20202;-77
2021/03/27 15:28:19;;;;;;;9.17;2.73;;;;;;;;;;5041396;28;20248;-79
2021/03/27 15:30:46;;;;;;;8.53;2.63;;;;;;;;;;5038855;28;20186;-77